sensor_id;sensor_type;location;lat;lon;timestamp;P1;durP1;ratioP1;P2;durP2;ratioP2
18905;SDS011;9585;51.018;4.282;2023-09-19T00:01:19;4.78;;;1.65;;
18905;SDS011;9585;51.018;4.282;2023-09-19T00:03:50;7.95;;;2.13;;
18905;SDS011;9585;51.018;4.282;2023-09-19T00:06:20;6.40;;;1.80;;
18905;SDS011;9585;51.018;4.282;2023-09-19T00:08:51;7.05;;;1.70;;
18905;SDS011;9585;51.018;4.282;2023-09-19T00:11:28;8.10;;;1.83;;
18905;SDS011;9585;51.018;4.282;2023-09-19T00:13:56;6.43;;;1.70;;
18905;SDS011;9585;51.018;4.282;2023-09-19T00:16:25;9.02;;;1.92;;
18905;SDS011;9585;51.018;4.282;2023-09-19T00:18:53;4.72;;;2.00;;
18905;SDS011;9585;51.018;4.282;2023-09-19T00:21:26;7.35;;;1.80;;
18905;SDS011;9585;51.018;4.282;2023-09-19T00:23:57;8.27;;;1.75;;
18905;SDS011;9585;51.018;4.282;2023-09-19T00:26:28;6.18;;;1.90;;
18905;SDS011;9585;51.018;4.282;2023-09-19T00:29:03;7.85;;;2.03;;
18905;SDS011;9585;51.018;4.282;2023-09-19T00:31:34;4.25;;;1.70;;
18905;SDS011;9585;51.018;4.282;2023-09-19T00:34:03;8.48;;;1.85;;
18905;SDS011;9585;51.018;4.282;2023-09-19T00:36:33;7.00;;;2.00;;
18905;SDS011;9585;51.018;4.282;2023-09-19T00:39:04;7.50;;;1.92;;
18905;SDS011;9585;51.018;4.282;2023-09-19T00:41:35;5.05;;;1.80;;
18905;SDS011;9585;51.018;4.282;2023-09-19T00:44:06;4.60;;;1.50;;
18905;SDS011;9585;51.018;4.282;2023-09-19T00:46:37;4.50;;;1.67;;
18905;SDS011;9585;51.018;4.282;2023-09-19T00:49:05;6.60;;;1.85;;
18905;SDS011;9585;51.018;4.282;2023-09-19T00:51:43;5.03;;;1.73;;
18905;SDS011;9585;51.018;4.282;2023-09-19T00:54:14;6.28;;;1.85;;
18905;SDS011;9585;51.018;4.282;2023-09-19T00:56:44;5.85;;;1.58;;
18905;SDS011;9585;51.018;4.282;2023-09-19T00:59:16;8.35;;;1.95;;
18905;SDS011;9585;51.018;4.282;2023-09-19T01:01:47;6.63;;;1.80;;
18905;SDS011;9585;51.018;4.282;2023-09-19T01:04:30;9.10;;;1.95;;
18905;SDS011;9585;51.018;4.282;2023-09-19T01:07:12;5.72;;;1.67;;
18905;SDS011;9585;51.018;4.282;2023-09-19T01:09:54;6.32;;;2.00;;
18905;SDS011;9585;51.018;4.282;2023-09-19T01:12:27;7.18;;;2.17;;
18905;SDS011;9585;51.018;4.282;2023-09-19T01:15:02;9.60;;;1.70;;
18905;SDS011;9585;51.018;4.282;2023-09-19T01:20:16;9.18;;;2.38;;
18905;SDS011;9585;51.018;4.282;2023-09-19T02:07:05;11.23;;;2.25;;
18905;SDS011;9585;51.018;4.282;2023-09-19T02:17:07;8.98;;;2.00;;
18905;SDS011;9585;51.018;4.282;2023-09-19T02:29:47;10.68;;;2.00;;
18905;SDS011;9585;51.018;4.282;2023-09-19T02:32:17;6.28;;;2.00;;
18905;SDS011;9585;51.018;4.282;2023-09-19T02:34:45;6.28;;;2.00;;
18905;SDS011;9585;51.018;4.282;2023-09-19T02:37:17;9.93;;;2.20;;
18905;SDS011;9585;51.018;4.282;2023-09-19T02:39:46;12.63;;;2.65;;
18905;SDS011;9585;51.018;4.282;2023-09-19T02:42:17;8.48;;;1.85;;
18905;SDS011;9585;51.018;4.282;2023-09-19T02:44:49;7.65;;;1.90;;
18905;SDS011;9585;51.018;4.282;2023-09-19T02:47:31;9.68;;;1.83;;
18905;SDS011;9585;51.018;4.282;2023-09-19T02:50:00;10.48;;;2.17;;
18905;SDS011;9585;51.018;4.282;2023-09-19T02:52:32;6.90;;;1.85;;
18905;SDS011;9585;51.018;4.282;2023-09-19T02:55:06;9.30;;;2.30;;
18905;SDS011;9585;51.018;4.282;2023-09-19T02:57:45;9.23;;;2.00;;
18905;SDS011;9585;51.018;4.282;2023-09-19T03:03:49;8.63;;;2.00;;
18905;SDS011;9585;51.018;4.282;2023-09-19T03:06:46;7.25;;;1.85;;
18905;SDS011;9585;51.018;4.282;2023-09-19T03:14:02;5.57;;;1.92;;
18905;SDS011;9585;51.018;4.282;2023-09-19T03:17:49;9.65;;;1.90;;
18905;SDS011;9585;51.018;4.282;2023-09-19T03:48:13;7.55;;;1.67;;
18905;SDS011;9585;51.018;4.282;2023-09-19T03:50:45;6.07;;;1.73;;
18905;SDS011;9585;51.018;4.282;2023-09-19T03:53:12;6.25;;;1.90;;
18905;SDS011;9585;51.018;4.282;2023-09-19T03:55:40;7.60;;;1.80;;
18905;SDS011;9585;51.018;4.282;2023-09-19T03:58:08;8.77;;;1.85;;
18905;SDS011;9585;51.018;4.282;2023-09-19T04:00:39;5.90;;;1.70;;
18905;SDS011;9585;51.018;4.282;2023-09-19T04:03:09;8.23;;;2.30;;
18905;SDS011;9585;51.018;4.282;2023-09-19T04:05:46;7.93;;;2.22;;
18905;SDS011;9585;51.018;4.282;2023-09-19T04:08:19;8.40;;;1.77;;
18905;SDS011;9585;51.018;4.282;2023-09-19T04:10:47;8.75;;;2.17;;
18905;SDS011;9585;51.018;4.282;2023-09-19T04:13:18;5.75;;;1.83;;
18905;SDS011;9585;51.018;4.282;2023-09-19T04:15:48;6.88;;;1.98;;
18905;SDS011;9585;51.018;4.282;2023-09-19T04:18:19;9.93;;;2.20;;
18905;SDS011;9585;51.018;4.282;2023-09-19T04:20:48;10.18;;;2.15;;
18905;SDS011;9585;51.018;4.282;2023-09-19T04:23:22;7.53;;;2.08;;
18905;SDS011;9585;51.018;4.282;2023-09-19T04:25:50;9.98;;;1.90;;
18905;SDS011;9585;51.018;4.282;2023-09-19T04:28:21;10.43;;;2.30;;
18905;SDS011;9585;51.018;4.282;2023-09-19T04:30:53;10.45;;;1.95;;
18905;SDS011;9585;51.018;4.282;2023-09-19T04:33:23;11.70;;;2.40;;
18905;SDS011;9585;51.018;4.282;2023-09-19T04:35:52;11.48;;;2.35;;
18905;SDS011;9585;51.018;4.282;2023-09-19T04:38:21;10.68;;;2.97;;
18905;SDS011;9585;51.018;4.282;2023-09-19T04:40:49;11.80;;;2.22;;
18905;SDS011;9585;51.018;4.282;2023-09-19T04:43:16;7.82;;;2.03;;
18905;SDS011;9585;51.018;4.282;2023-09-19T04:45:49;8.10;;;2.10;;
18905;SDS011;9585;51.018;4.282;2023-09-19T04:48:22;8.65;;;1.98;;
18905;SDS011;9585;51.018;4.282;2023-09-19T04:50:54;9.20;;;1.80;;
18905;SDS011;9585;51.018;4.282;2023-09-19T04:53:22;11.77;;;2.50;;
18905;SDS011;9585;51.018;4.282;2023-09-19T04:55:51;11.07;;;2.10;;
18905;SDS011;9585;51.018;4.282;2023-09-19T04:58:23;9.10;;;1.90;;
18905;SDS011;9585;51.018;4.282;2023-09-19T05:00:54;6.88;;;1.95;;
18905;SDS011;9585;51.018;4.282;2023-09-19T05:03:26;7.70;;;2.05;;
18905;SDS011;9585;51.018;4.282;2023-09-19T05:05:54;9.80;;;2.03;;
18905;SDS011;9585;51.018;4.282;2023-09-19T05:08:22;7.50;;;2.28;;
18905;SDS011;9585;51.018;4.282;2023-09-19T05:10:50;7.30;;;1.90;;
18905;SDS011;9585;51.018;4.282;2023-09-19T05:13:21;11.65;;;2.55;;
18905;SDS011;9585;51.018;4.282;2023-09-19T05:15:52;10.38;;;2.17;;
18905;SDS011;9585;51.018;4.282;2023-09-19T05:18:26;7.03;;;2.03;;
18905;SDS011;9585;51.018;4.282;2023-09-19T05:21:08;10.52;;;1.90;;
18905;SDS011;9585;51.018;4.282;2023-09-19T05:23:39;10.82;;;2.30;;
18905;SDS011;9585;51.018;4.282;2023-09-19T05:26:15;11.95;;;2.10;;
18905;SDS011;9585;51.018;4.282;2023-09-19T05:32:12;11.52;;;1.95;;
18905;SDS011;9585;51.018;4.282;2023-09-19T05:34:43;10.13;;;2.53;;
18905;SDS011;9585;51.018;4.282;2023-09-19T05:37:24;10.27;;;2.00;;
18905;SDS011;9585;51.018;4.282;2023-09-19T05:39:55;10.85;;;2.50;;
18905;SDS011;9585;51.018;4.282;2023-09-19T05:42:22;9.98;;;1.95;;
18905;SDS011;9585;51.018;4.282;2023-09-19T05:44:50;8.88;;;2.10;;
18905;SDS011;9585;51.018;4.282;2023-09-19T05:47:18;9.95;;;2.42;;
18905;SDS011;9585;51.018;4.282;2023-09-19T05:49:54;9.23;;;2.15;;
18905;SDS011;9585;51.018;4.282;2023-09-19T05:52:24;10.20;;;1.95;;
18905;SDS011;9585;51.018;4.282;2023-09-19T05:58:18;10.20;;;2.15;;
18905;SDS011;9585;51.018;4.282;2023-09-19T06:00:45;8.60;;;1.88;;
18905;SDS011;9585;51.018;4.282;2023-09-19T06:03:18;7.57;;;1.90;;
18905;SDS011;9585;51.018;4.282;2023-09-19T06:05:49;8.85;;;2.10;;
18905;SDS011;9585;51.018;4.282;2023-09-19T06:08:18;7.72;;;2.15;;
18905;SDS011;9585;51.018;4.282;2023-09-19T06:10:46;11.70;;;2.20;;
18905;SDS011;9585;51.018;4.282;2023-09-19T06:13:14;10.13;;;2.63;;
18905;SDS011;9585;51.018;4.282;2023-09-19T06:15:42;10.00;;;2.45;;
18905;SDS011;9585;51.018;4.282;2023-09-19T06:18:12;8.48;;;2.15;;
18905;SDS011;9585;51.018;4.282;2023-09-19T06:20:45;8.80;;;1.70;;
18905;SDS011;9585;51.018;4.282;2023-09-19T06:23:17;5.90;;;1.92;;
18905;SDS011;9585;51.018;4.282;2023-09-19T06:25:48;7.95;;;1.73;;
18905;SDS011;9585;51.018;4.282;2023-09-19T06:28:20;7.65;;;1.70;;
18905;SDS011;9585;51.018;4.282;2023-09-19T06:30:53;9.23;;;1.88;;
18905;SDS011;9585;51.018;4.282;2023-09-19T06:33:23;8.00;;;1.83;;
18905;SDS011;9585;51.018;4.282;2023-09-19T06:35:58;8.50;;;2.45;;
18905;SDS011;9585;51.018;4.282;2023-09-19T06:38:34;10.07;;;2.00;;
18905;SDS011;9585;51.018;4.282;2023-09-19T06:41:06;7.50;;;1.67;;
18905;SDS011;9585;51.018;4.282;2023-09-19T06:43:34;11.00;;;2.03;;
18905;SDS011;9585;51.018;4.282;2023-09-19T06:46:02;9.75;;;2.10;;
18905;SDS011;9585;51.018;4.282;2023-09-19T06:48:33;8.90;;;2.10;;
18905;SDS011;9585;51.018;4.282;2023-09-19T06:51:03;8.15;;;1.90;;
18905;SDS011;9585;51.018;4.282;2023-09-19T06:53:43;7.95;;;1.80;;
18905;SDS011;9585;51.018;4.282;2023-09-19T06:56:20;5.57;;;1.50;;
18905;SDS011;9585;51.018;4.282;2023-09-19T06:58:50;6.63;;;1.58;;
18905;SDS011;9585;51.018;4.282;2023-09-19T07:01:23;7.70;;;1.60;;
18905;SDS011;9585;51.018;4.282;2023-09-19T07:03:51;8.63;;;1.70;;
18905;SDS011;9585;51.018;4.282;2023-09-19T07:06:24;7.90;;;1.70;;
18905;SDS011;9585;51.018;4.282;2023-09-19T07:08:56;9.13;;;2.35;;
18905;SDS011;9585;51.018;4.282;2023-09-19T07:11:32;7.00;;;1.60;;
18905;SDS011;9585;51.018;4.282;2023-09-19T07:14:00;5.85;;;1.83;;
18905;SDS011;9585;51.018;4.282;2023-09-19T07:16:34;8.45;;;1.67;;
18905;SDS011;9585;51.018;4.282;2023-09-19T07:22:30;10.45;;;1.90;;
18905;SDS011;9585;51.018;4.282;2023-09-19T07:25:13;6.65;;;1.85;;
18905;SDS011;9585;51.018;4.282;2023-09-19T07:27:46;6.07;;;1.73;;
18905;SDS011;9585;51.018;4.282;2023-09-19T07:30:17;6.30;;;1.65;;
18905;SDS011;9585;51.018;4.282;2023-09-19T07:32:49;7.68;;;1.83;;
18905;SDS011;9585;51.018;4.282;2023-09-19T07:35:16;7.65;;;1.70;;
18905;SDS011;9585;51.018;4.282;2023-09-19T07:38:00;4.47;;;1.63;;
18905;SDS011;9585;51.018;4.282;2023-09-19T07:40:29;6.65;;;1.77;;
18905;SDS011;9585;51.018;4.282;2023-09-19T07:42:57;4.70;;;1.58;;
18905;SDS011;9585;51.018;4.282;2023-09-19T07:45:27;10.35;;;2.00;;
18905;SDS011;9585;51.018;4.282;2023-09-19T07:47:58;6.80;;;1.80;;
18905;SDS011;9585;51.018;4.282;2023-09-19T07:50:46;7.10;;;1.85;;
18905;SDS011;9585;51.018;4.282;2023-09-19T07:53:15;4.65;;;1.45;;
18905;SDS011;9585;51.018;4.282;2023-09-19T07:55:44;4.80;;;1.50;;
18905;SDS011;9585;51.018;4.282;2023-09-19T07:58:13;6.45;;;1.60;;
18905;SDS011;9585;51.018;4.282;2023-09-19T08:00:46;6.50;;;1.67;;
18905;SDS011;9585;51.018;4.282;2023-09-19T08:03:18;6.28;;;1.85;;
18905;SDS011;9585;51.018;4.282;2023-09-19T08:05:48;7.45;;;1.95;;
18905;SDS011;9585;51.018;4.282;2023-09-19T08:08:17;5.53;;;1.77;;
18905;SDS011;9585;51.018;4.282;2023-09-19T08:10:52;5.75;;;1.65;;
18905;SDS011;9585;51.018;4.282;2023-09-19T08:13:23;6.13;;;1.80;;
18905;SDS011;9585;51.018;4.282;2023-09-19T08:15:52;5.93;;;1.77;;
18905;SDS011;9585;51.018;4.282;2023-09-19T08:18:20;6.10;;;1.95;;
18905;SDS011;9585;51.018;4.282;2023-09-19T08:20:52;5.07;;;1.67;;
18905;SDS011;9585;51.018;4.282;2023-09-19T08:23:22;7.03;;;1.90;;
18905;SDS011;9585;51.018;4.282;2023-09-19T08:25:58;6.35;;;1.80;;
18905;SDS011;9585;51.018;4.282;2023-09-19T08:28:31;7.75;;;1.77;;
18905;SDS011;9585;51.018;4.282;2023-09-19T08:31:01;8.50;;;2.40;;
18905;SDS011;9585;51.018;4.282;2023-09-19T08:33:32;5.88;;;1.77;;
18905;SDS011;9585;51.018;4.282;2023-09-19T08:36:01;4.40;;;1.60;;
18905;SDS011;9585;51.018;4.282;2023-09-19T08:38:44;6.43;;;1.77;;
18905;SDS011;9585;51.018;4.282;2023-09-19T08:41:16;10.13;;;2.08;;
18905;SDS011;9585;51.018;4.282;2023-09-19T08:43:52;6.90;;;2.25;;
18905;SDS011;9585;51.018;4.282;2023-09-19T08:46:20;5.78;;;1.60;;
18905;SDS011;9585;51.018;4.282;2023-09-19T08:48:54;6.20;;;1.98;;
18905;SDS011;9585;51.018;4.282;2023-09-19T08:51:33;10.55;;;2.42;;
18905;SDS011;9585;51.018;4.282;2023-09-19T08:54:18;5.68;;;1.80;;
18905;SDS011;9585;51.018;4.282;2023-09-19T08:56:52;6.63;;;2.05;;
18905;SDS011;9585;51.018;4.282;2023-09-19T08:59:22;6.88;;;1.67;;
18905;SDS011;9585;51.018;4.282;2023-09-19T09:01:57;6.50;;;1.70;;
18905;SDS011;9585;51.018;4.282;2023-09-19T09:04:25;7.78;;;1.85;;
18905;SDS011;9585;51.018;4.282;2023-09-19T09:06:54;5.13;;;1.83;;
18905;SDS011;9585;51.018;4.282;2023-09-19T09:09:25;6.55;;;1.73;;
18905;SDS011;9585;51.018;4.282;2023-09-19T09:11:55;9.18;;;2.00;;
18905;SDS011;9585;51.018;4.282;2023-09-19T09:14:39;7.80;;;1.67;;
18905;SDS011;9585;51.018;4.282;2023-09-19T09:17:10;6.60;;;1.70;;
18905;SDS011;9585;51.018;4.282;2023-09-19T09:19:38;6.78;;;1.55;;
18905;SDS011;9585;51.018;4.282;2023-09-19T09:22:10;7.07;;;1.73;;
18905;SDS011;9585;51.018;4.282;2023-09-19T09:24:53;5.22;;;1.50;;
18905;SDS011;9585;51.018;4.282;2023-09-19T09:27:37;6.65;;;1.40;;
18905;SDS011;9585;51.018;4.282;2023-09-19T09:30:15;6.50;;;1.60;;
18905;SDS011;9585;51.018;4.282;2023-09-19T09:33:10;6.20;;;1.83;;
18905;SDS011;9585;51.018;4.282;2023-09-19T09:35:49;7.13;;;1.92;;
18905;SDS011;9585;51.018;4.282;2023-09-19T09:38:28;6.20;;;1.50;;
18905;SDS011;9585;51.018;4.282;2023-09-19T09:41:11;7.85;;;1.60;;
18905;SDS011;9585;51.018;4.282;2023-09-19T09:43:52;6.40;;;1.65;;
18905;SDS011;9585;51.018;4.282;2023-09-19T09:46:24;4.57;;;1.42;;
18905;SDS011;9585;51.018;4.282;2023-09-19T09:49:10;7.28;;;1.55;;
18905;SDS011;9585;51.018;4.282;2023-09-19T09:51:58;4.35;;;1.60;;
18905;SDS011;9585;51.018;4.282;2023-09-19T09:54:34;5.45;;;1.50;;
18905;SDS011;9585;51.018;4.282;2023-09-19T09:57:17;4.10;;;1.38;;
18905;SDS011;9585;51.018;4.282;2023-09-19T09:59:52;4.53;;;1.63;;
18905;SDS011;9585;51.018;4.282;2023-09-19T10:02:41;5.38;;;1.40;;
18905;SDS011;9585;51.018;4.282;2023-09-19T10:05:12;4.07;;;1.17;;
18905;SDS011;9585;51.018;4.282;2023-09-19T10:07:46;5.00;;;1.58;;
18905;SDS011;9585;51.018;4.282;2023-09-19T10:10:30;3.53;;;1.13;;
18905;SDS011;9585;51.018;4.282;2023-09-19T10:13:22;4.40;;;1.30;;
18905;SDS011;9585;51.018;4.282;2023-09-19T10:15:56;4.15;;;1.25;;
18905;SDS011;9585;51.018;4.282;2023-09-19T10:18:33;5.75;;;1.42;;
18905;SDS011;9585;51.018;4.282;2023-09-19T10:21:22;6.22;;;1.52;;
18905;SDS011;9585;51.018;4.282;2023-09-19T10:24:08;4.70;;;1.70;;
18905;SDS011;9585;51.018;4.282;2023-09-19T10:26:41;7.72;;;1.23;;
18905;SDS011;9585;51.018;4.282;2023-09-19T10:29:13;6.05;;;1.40;;
18905;SDS011;9585;51.018;4.282;2023-09-19T10:31:43;5.60;;;1.25;;
18905;SDS011;9585;51.018;4.282;2023-09-19T10:34:15;3.88;;;1.40;;
18905;SDS011;9585;51.018;4.282;2023-09-19T10:36:47;5.28;;;1.83;;
18905;SDS011;9585;51.018;4.282;2023-09-19T10:39:20;4.05;;;1.52;;
18905;SDS011;9585;51.018;4.282;2023-09-19T10:41:50;3.85;;;1.60;;
18905;SDS011;9585;51.018;4.282;2023-09-19T10:44:35;4.45;;;1.55;;
18905;SDS011;9585;51.018;4.282;2023-09-19T10:47:23;5.03;;;1.50;;
18905;SDS011;9585;51.018;4.282;2023-09-19T10:54:22;6.03;;;1.50;;
18905;SDS011;9585;51.018;4.282;2023-09-19T11:21:39;3.85;;;1.23;;
18905;SDS011;9585;51.018;4.282;2023-09-19T11:24:32;3.58;;;0.80;;
18905;SDS011;9585;51.018;4.282;2023-09-19T11:27:17;1.98;;;0.65;;
18905;SDS011;9585;51.018;4.282;2023-09-19T11:29:45;3.80;;;1.00;;
18905;SDS011;9585;51.018;4.282;2023-09-19T11:36:02;3.78;;;1.10;;
18905;SDS011;9585;51.018;4.282;2023-09-19T11:41:37;2.13;;;0.70;;
18905;SDS011;9585;51.018;4.282;2023-09-19T11:47:06;4.95;;;0.90;;
18905;SDS011;9585;51.018;4.282;2023-09-19T11:49:40;3.45;;;0.90;;
18905;SDS011;9585;51.018;4.282;2023-09-19T11:52:09;2.10;;;0.80;;
18905;SDS011;9585;51.018;4.282;2023-09-19T11:54:42;2.90;;;0.82;;
18905;SDS011;9585;51.018;4.282;2023-09-19T11:57:12;2.80;;;0.82;;
18905;SDS011;9585;51.018;4.282;2023-09-19T11:59:48;2.10;;;0.68;;
18905;SDS011;9585;51.018;4.282;2023-09-19T12:02:27;2.97;;;0.82;;
18905;SDS011;9585;51.018;4.282;2023-09-19T12:05:05;3.85;;;1.00;;
18905;SDS011;9585;51.018;4.282;2023-09-19T12:07:43;3.13;;;1.20;;
18905;SDS011;9585;51.018;4.282;2023-09-19T12:10:13;4.18;;;1.00;;
18905;SDS011;9585;51.018;4.282;2023-09-19T12:12:46;4.95;;;1.08;;
18905;SDS011;9585;51.018;4.282;2023-09-19T12:15:22;2.35;;;0.70;;
18905;SDS011;9585;51.018;4.282;2023-09-19T12:18:04;3.50;;;0.95;;
18905;SDS011;9585;51.018;4.282;2023-09-19T12:20:42;2.05;;;0.80;;
18905;SDS011;9585;51.018;4.282;2023-09-19T12:23:18;2.38;;;0.90;;
18905;SDS011;9585;51.018;4.282;2023-09-19T12:25:50;4.63;;;0.80;;
18905;SDS011;9585;51.018;4.282;2023-09-19T12:28:22;4.18;;;0.80;;
18905;SDS011;9585;51.018;4.282;2023-09-19T12:31:00;4.53;;;1.02;;
18905;SDS011;9585;51.018;4.282;2023-09-19T12:33:34;2.60;;;1.20;;
18905;SDS011;9585;51.018;4.282;2023-09-19T12:36:08;2.63;;;0.77;;
18905;SDS011;9585;51.018;4.282;2023-09-19T12:38:56;4.13;;;0.90;;
18905;SDS011;9585;51.018;4.282;2023-09-19T12:41:38;2.65;;;0.85;;
18905;SDS011;9585;51.018;4.282;2023-09-19T12:44:13;3.15;;;0.85;;
18905;SDS011;9585;51.018;4.282;2023-09-19T12:46:43;2.70;;;0.90;;
18905;SDS011;9585;51.018;4.282;2023-09-19T12:49:14;2.72;;;0.90;;
18905;SDS011;9585;51.018;4.282;2023-09-19T12:51:44;2.55;;;0.90;;
18905;SDS011;9585;51.018;4.282;2023-09-19T12:54:26;2.45;;;1.05;;
18905;SDS011;9585;51.018;4.282;2023-09-19T12:57:05;4.05;;;1.10;;
18905;SDS011;9585;51.018;4.282;2023-09-19T12:59:51;3.97;;;1.00;;
18905;SDS011;9585;51.018;4.282;2023-09-19T13:02:19;4.03;;;0.90;;
18905;SDS011;9585;51.018;4.282;2023-09-19T13:04:54;6.28;;;1.35;;
18905;SDS011;9585;51.018;4.282;2023-09-19T13:07:40;2.55;;;1.00;;
18905;SDS011;9585;51.018;4.282;2023-09-19T13:16:59;1.38;;;0.90;;
18905;SDS011;9585;51.018;4.282;2023-09-19T13:20:22;4.20;;;1.17;;
18905;SDS011;9585;51.018;4.282;2023-09-19T13:23:08;4.68;;;1.00;;
18905;SDS011;9585;51.018;4.282;2023-09-19T13:26:14;2.90;;;0.98;;
18905;SDS011;9585;51.018;4.282;2023-09-19T13:38:46;4.70;;;1.38;;
18905;SDS011;9585;51.018;4.282;2023-09-19T13:41:33;2.67;;;1.00;;
18905;SDS011;9585;51.018;4.282;2023-09-19T13:44:35;1.92;;;1.08;;
18905;SDS011;9585;51.018;4.282;2023-09-19T13:47:35;4.53;;;0.90;;
18905;SDS011;9585;51.018;4.282;2023-09-19T13:50:38;1.70;;;1.00;;
18905;SDS011;9585;51.018;4.282;2023-09-19T13:54:05;3.38;;;0.88;;
18905;SDS011;9585;51.018;4.282;2023-09-19T13:57:33;3.30;;;1.27;;
18905;SDS011;9585;51.018;4.282;2023-09-19T14:00:50;2.22;;;0.95;;
18905;SDS011;9585;51.018;4.282;2023-09-19T14:03:43;3.03;;;1.00;;
18905;SDS011;9585;51.018;4.282;2023-09-19T14:06:36;2.97;;;1.00;;
18905;SDS011;9585;51.018;4.282;2023-09-19T14:09:37;3.28;;;1.33;;
18905;SDS011;9585;51.018;4.282;2023-09-19T14:12:11;3.15;;;1.10;;
18905;SDS011;9585;51.018;4.282;2023-09-19T14:14:39;3.80;;;1.52;;
18905;SDS011;9585;51.018;4.282;2023-09-19T14:17:10;4.68;;;1.30;;
18905;SDS011;9585;51.018;4.282;2023-09-19T14:20:14;4.18;;;1.05;;
18905;SDS011;9585;51.018;4.282;2023-09-19T15:16:54;5.82;;;1.80;;
18905;SDS011;9585;51.018;4.282;2023-09-19T15:19:38;4.65;;;1.67;;
18905;SDS011;9585;51.018;4.282;2023-09-19T15:22:08;4.75;;;1.42;;
18905;SDS011;9585;51.018;4.282;2023-09-19T15:24:38;2.92;;;1.00;;
18905;SDS011;9585;51.018;4.282;2023-09-19T15:27:09;5.25;;;1.63;;
18905;SDS011;9585;51.018;4.282;2023-09-19T15:29:52;4.78;;;1.13;;
18905;SDS011;9585;51.018;4.282;2023-09-19T15:32:21;7.95;;;1.75;;
18905;SDS011;9585;51.018;4.282;2023-09-19T15:35:03;4.47;;;1.27;;
18905;SDS011;9585;51.018;4.282;2023-09-19T15:37:33;5.30;;;1.50;;
18905;SDS011;9585;51.018;4.282;2023-09-19T15:40:03;5.35;;;1.40;;
18905;SDS011;9585;51.018;4.282;2023-09-19T15:42:38;3.53;;;1.40;;
18905;SDS011;9585;51.018;4.282;2023-09-19T15:45:09;3.28;;;1.58;;
18905;SDS011;9585;51.018;4.282;2023-09-19T15:47:39;6.75;;;1.63;;
18905;SDS011;9585;51.018;4.282;2023-09-19T15:50:10;5.00;;;1.42;;
18905;SDS011;9585;51.018;4.282;2023-09-19T15:52:42;4.32;;;1.52;;
18905;SDS011;9585;51.018;4.282;2023-09-19T15:55:17;4.30;;;1.35;;
18905;SDS011;9585;51.018;4.282;2023-09-19T15:58:29;6.07;;;1.70;;
18905;SDS011;9585;51.018;4.282;2023-09-19T16:08:43;4.68;;;1.65;;
18905;SDS011;9585;51.018;4.282;2023-09-19T16:11:25;3.78;;;1.60;;
18905;SDS011;9585;51.018;4.282;2023-09-19T16:13:57;5.47;;;1.70;;
18905;SDS011;9585;51.018;4.282;2023-09-19T16:16:45;7.50;;;1.63;;
18905;SDS011;9585;51.018;4.282;2023-09-19T16:19:14;3.58;;;1.40;;
18905;SDS011;9585;51.018;4.282;2023-09-19T16:21:44;4.05;;;1.60;;
18905;SDS011;9585;51.018;4.282;2023-09-19T16:24:15;3.45;;;1.50;;
18905;SDS011;9585;51.018;4.282;2023-09-19T16:27:00;4.60;;;1.38;;
18905;SDS011;9585;51.018;4.282;2023-09-19T16:29:33;4.72;;;1.23;;
18905;SDS011;9585;51.018;4.282;2023-09-19T16:32:05;4.43;;;1.30;;
18905;SDS011;9585;51.018;4.282;2023-09-19T16:34:41;3.58;;;1.55;;
18905;SDS011;9585;51.018;4.282;2023-09-19T16:37:09;5.00;;;1.20;;
18905;SDS011;9585;51.018;4.282;2023-09-19T16:39:39;4.35;;;1.40;;
18905;SDS011;9585;51.018;4.282;2023-09-19T16:42:06;6.10;;;1.50;;
18905;SDS011;9585;51.018;4.282;2023-09-19T16:44:41;3.85;;;1.50;;
18905;SDS011;9585;51.018;4.282;2023-09-19T16:47:10;5.85;;;1.63;;
18905;SDS011;9585;51.018;4.282;2023-09-19T16:50:05;5.55;;;1.35;;
18905;SDS011;9585;51.018;4.282;2023-09-19T16:52:59;6.93;;;1.48;;
18905;SDS011;9585;51.018;4.282;2023-09-19T16:56:37;4.40;;;1.70;;
18905;SDS011;9585;51.018;4.282;2023-09-19T16:59:19;4.40;;;1.50;;
18905;SDS011;9585;51.018;4.282;2023-09-19T17:02:10;5.10;;;1.48;;
18905;SDS011;9585;51.018;4.282;2023-09-19T17:05:07;4.15;;;1.45;;
18905;SDS011;9585;51.018;4.282;2023-09-19T17:07:46;4.38;;;1.50;;
18905;SDS011;9585;51.018;4.282;2023-09-19T17:10:13;5.85;;;1.60;;
18905;SDS011;9585;51.018;4.282;2023-09-19T17:12:45;3.17;;;1.65;;
18905;SDS011;9585;51.018;4.282;2023-09-19T17:15:15;7.00;;;1.55;;
18905;SDS011;9585;51.018;4.282;2023-09-19T17:17:43;4.22;;;1.38;;
18905;SDS011;9585;51.018;4.282;2023-09-19T17:20:11;4.35;;;1.50;;
18905;SDS011;9585;51.018;4.282;2023-09-19T17:22:39;4.70;;;1.17;;
18905;SDS011;9585;51.018;4.282;2023-09-19T17:25:07;5.65;;;1.58;;
18905;SDS011;9585;51.018;4.282;2023-09-19T17:27:36;5.25;;;1.90;;
18905;SDS011;9585;51.018;4.282;2023-09-19T17:30:08;3.03;;;1.38;;
18905;SDS011;9585;51.018;4.282;2023-09-19T17:32:41;3.65;;;1.60;;
18905;SDS011;9585;51.018;4.282;2023-09-19T17:35:13;3.47;;;1.50;;
18905;SDS011;9585;51.018;4.282;2023-09-19T17:37:43;6.63;;;1.63;;
18905;SDS011;9585;51.018;4.282;2023-09-19T17:40:11;3.88;;;1.35;;
18905;SDS011;9585;51.018;4.282;2023-09-19T17:42:41;5.57;;;1.30;;
18905;SDS011;9585;51.018;4.282;2023-09-19T17:45:11;4.75;;;1.50;;
18905;SDS011;9585;51.018;4.282;2023-09-19T17:47:41;6.60;;;1.70;;
18905;SDS011;9585;51.018;4.282;2023-09-19T17:50:09;4.68;;;1.48;;
18905;SDS011;9585;51.018;4.282;2023-09-19T17:52:38;3.72;;;1.38;;
18905;SDS011;9585;51.018;4.282;2023-09-19T17:55:10;5.03;;;1.20;;
18905;SDS011;9585;51.018;4.282;2023-09-19T17:57:42;4.38;;;1.48;;
18905;SDS011;9585;51.018;4.282;2023-09-19T18:00:15;5.38;;;1.67;;
18905;SDS011;9585;51.018;4.282;2023-09-19T18:02:46;4.40;;;1.83;;
18905;SDS011;9585;51.018;4.282;2023-09-19T18:05:14;4.55;;;1.38;;
18905;SDS011;9585;51.018;4.282;2023-09-19T18:07:44;4.63;;;1.40;;
18905;SDS011;9585;51.018;4.282;2023-09-19T18:10:12;3.80;;;1.40;;
18905;SDS011;9585;51.018;4.282;2023-09-19T18:12:40;4.70;;;1.30;;
18905;SDS011;9585;51.018;4.282;2023-09-19T18:15:08;4.15;;;1.38;;
18905;SDS011;9585;51.018;4.282;2023-09-19T18:17:41;2.17;;;1.17;;
18905;SDS011;9585;51.018;4.282;2023-09-19T18:20:11;4.90;;;1.20;;
18905;SDS011;9585;51.018;4.282;2023-09-19T18:22:41;4.88;;;1.50;;
18905;SDS011;9585;51.018;4.282;2023-09-19T18:25:09;4.75;;;1.75;;
18905;SDS011;9585;51.018;4.282;2023-09-19T18:27:38;4.45;;;1.50;;
18905;SDS011;9585;51.018;4.282;2023-09-19T18:30:07;5.25;;;1.33;;
18905;SDS011;9585;51.018;4.282;2023-09-19T18:32:41;3.85;;;1.35;;
18905;SDS011;9585;51.018;4.282;2023-09-19T18:35:09;4.22;;;1.55;;
18905;SDS011;9585;51.018;4.282;2023-09-19T18:37:37;4.63;;;1.30;;
18905;SDS011;9585;51.018;4.282;2023-09-19T18:40:07;4.18;;;1.50;;
18905;SDS011;9585;51.018;4.282;2023-09-19T18:42:41;3.85;;;1.50;;
18905;SDS011;9585;51.018;4.282;2023-09-19T18:45:32;3.53;;;1.20;;
18905;SDS011;9585;51.018;4.282;2023-09-19T18:48:07;5.53;;;1.80;;
18905;SDS011;9585;51.018;4.282;2023-09-19T18:50:50;5.80;;;1.42;;
18905;SDS011;9585;51.018;4.282;2023-09-19T18:53:42;3.90;;;1.38;;
18905;SDS011;9585;51.018;4.282;2023-09-19T18:56:20;3.78;;;1.60;;
18905;SDS011;9585;51.018;4.282;2023-09-19T18:58:57;3.97;;;1.35;;
18905;SDS011;9585;51.018;4.282;2023-09-19T19:01:26;4.25;;;1.52;;
18905;SDS011;9585;51.018;4.282;2023-09-19T19:04:00;5.55;;;1.45;;
18905;SDS011;9585;51.018;4.282;2023-09-19T19:06:30;3.78;;;1.30;;
18905;SDS011;9585;51.018;4.282;2023-09-19T19:08:58;5.05;;;1.58;;
18905;SDS011;9585;51.018;4.282;2023-09-19T19:11:26;3.90;;;1.25;;
18905;SDS011;9585;51.018;4.282;2023-09-19T19:13:55;4.53;;;1.40;;
18905;SDS011;9585;51.018;4.282;2023-09-19T19:16:23;6.03;;;1.50;;
18905;SDS011;9585;51.018;4.282;2023-09-19T19:19:14;5.47;;;1.70;;
18905;SDS011;9585;51.018;4.282;2023-09-19T19:21:45;3.88;;;1.70;;
18905;SDS011;9585;51.018;4.282;2023-09-19T19:24:14;4.10;;;1.30;;
18905;SDS011;9585;51.018;4.282;2023-09-19T19:26:45;3.22;;;1.50;;
18905;SDS011;9585;51.018;4.282;2023-09-19T19:29:15;5.50;;;1.52;;
18905;SDS011;9585;51.018;4.282;2023-09-19T19:31:46;4.07;;;1.70;;
18905;SDS011;9585;51.018;4.282;2023-09-19T19:34:16;3.65;;;1.50;;
18905;SDS011;9585;51.018;4.282;2023-09-19T19:36:47;4.93;;;1.85;;